createdAt,value
2022-12-17T05:06:40.289Z,-86
2022-12-17T05:09:26.028Z,-85
2022-12-17T05:12:11.355Z,-85
2022-12-17T05:15:11.630Z,-85
2022-12-17T05:17:56.993Z,-86
2022-12-17T05:20:42.479Z,-86
2022-12-17T05:23:29.457Z,-85
2022-12-17T05:26:31.070Z,-86
2022-12-17T05:29:16.556Z,-86
2022-12-17T05:32:02.162Z,-85
2022-12-17T05:34:47.298Z,-85
2022-12-17T05:37:32.855Z,-85
2022-12-17T05:40:19.739Z,-86
2022-12-17T05:43:13.973Z,-85
2022-12-17T05:45:59.661Z,-85
2022-12-17T05:48:46.133Z,-85
2022-12-17T05:51:35.693Z,-86
2022-12-17T05:54:24.242Z,-86
2022-12-17T05:57:07.612Z,-86
2022-12-17T05:59:53.230Z,-86
2022-12-17T06:02:38.565Z,-85
2022-12-17T06:05:25.194Z,-85
2022-12-17T06:08:19.037Z,-86
2022-12-17T06:11:04.580Z,-86
2022-12-17T06:13:58.655Z,-87
2022-12-17T06:16:43.879Z,-86
2022-12-17T06:19:29.301Z,-86
2022-12-17T06:22:15.712Z,-88
2022-12-17T06:25:01.015Z,-85
2022-12-17T06:27:46.863Z,-85
2022-12-17T06:30:34.048Z,-84
2022-12-17T06:33:24.481Z,-86
2022-12-17T06:36:12.029Z,-86
2022-12-17T06:38:59.632Z,-86
2022-12-17T06:41:45.136Z,-86
2022-12-17T06:44:32.850Z,-86
2022-12-17T06:47:19.721Z,-86
2022-12-17T06:50:04.995Z,-86
2022-12-17T06:52:50.356Z,-86
2022-12-17T06:55:44.375Z,-85
2022-12-17T06:58:30.021Z,-85
2022-12-17T07:01:15.437Z,-86
2022-12-17T07:04:13.681Z,-86
2022-12-17T07:06:59.115Z,-84
2022-12-17T07:09:44.753Z,-84
2022-12-17T07:12:30.349Z,-84
2022-12-17T07:15:15.720Z,-84
2022-12-17T07:18:01.003Z,-84
2022-12-17T07:20:47.628Z,-84
2022-12-17T07:23:33.745Z,-85
2022-12-17T07:26:19.362Z,-85
2022-12-17T07:29:04.691Z,-85
2022-12-17T07:31:50.337Z,-87
2022-12-17T07:34:35.886Z,-87
2022-12-17T07:37:23.199Z,-87
2022-12-17T07:40:08.623Z,-87
2022-12-17T07:42:53.926Z,-87
2022-12-17T07:45:39.656Z,-87
2022-12-17T07:48:24.994Z,-87
2022-12-17T07:51:10.952Z,-87
2022-12-17T07:53:57.682Z,-87
2022-12-17T07:56:42.976Z,-88
2022-12-17T07:59:28.496Z,-87
2022-12-17T08:02:15.863Z,-88
2022-12-17T08:05:01.272Z,-88
2022-12-17T08:07:46.709Z,-88
2022-12-17T08:10:39.264Z,-88
2022-12-17T08:13:33.426Z,-88
2022-12-17T08:16:19.338Z,-88
2022-12-17T08:19:04.873Z,-87
2022-12-17T08:21:50.093Z,-88
2022-12-17T08:24:35.589Z,-88
2022-12-17T08:27:22.666Z,-87
2022-12-17T08:30:08.004Z,-88
2022-12-17T08:32:53.192Z,-88
2022-12-17T08:35:38.974Z,-88
2022-12-17T08:38:24.877Z,-88
2022-12-17T08:41:10.153Z,-88
2022-12-17T08:43:53.421Z,-87
2022-12-17T08:46:39.089Z,-87
2022-12-17T08:49:24.721Z,-89
2022-12-17T08:52:09.961Z,-89
2022-12-17T08:54:55.916Z,-88
2022-12-17T08:57:41.296Z,-89
2022-12-17T09:00:29.772Z,-88
2022-12-17T09:03:16.230Z,-89
2022-12-17T09:06:02.255Z,-89
2022-12-17T09:08:48.078Z,-88
2022-12-17T09:11:33.959Z,-88
2022-12-17T09:14:19.244Z,-88
2022-12-17T09:17:06.527Z,-89
2022-12-17T09:19:48.438Z,-88
2022-12-17T09:22:34.008Z,-89
2022-12-17T09:25:19.767Z,-89
2022-12-17T09:28:05.029Z,-89
2022-12-17T09:30:50.740Z,-87
2022-12-17T09:33:38.103Z,-89
2022-12-17T09:36:25.078Z,-89
2022-12-17T09:39:11.029Z,-90
2022-12-17T09:42:03.129Z,-88
2022-12-17T09:44:54.975Z,-90
2022-12-17T09:47:50.108Z,-89
2022-12-17T09:50:36.743Z,-89
2022-12-17T09:53:28.923Z,-89
2022-12-17T09:56:14.130Z,-89
2022-12-17T09:59:00.046Z,-91
2022-12-17T10:01:49.654Z,-90
2022-12-17T10:04:36.245Z,-89
2022-12-17T10:07:30.548Z,-89
2022-12-17T10:10:17.069Z,-89
2022-12-17T10:13:02.363Z,-90
2022-12-17T10:15:56.393Z,-90
2022-12-17T10:18:44.544Z,-90
2022-12-17T10:21:45.194Z,-90
2022-12-17T10:24:32.605Z,-90
2022-12-17T10:27:18.117Z,-91
2022-12-17T10:30:06.111Z,-91
2022-12-17T10:32:51.585Z,-91
2022-12-17T10:35:38.992Z,-90
2022-12-17T10:38:31.391Z,-81
2022-12-17T10:41:18.426Z,-81
2022-12-17T10:44:03.720Z,-79
2022-12-17T10:46:51.166Z,-80
2022-12-17T10:49:39.838Z,-80
2022-12-17T10:52:45.793Z,-80
2022-12-17T10:55:41.169Z,-80
2022-12-17T10:58:32.427Z,-80
2022-12-17T11:01:19.074Z,-80
2022-12-17T11:04:10.019Z,-80
2022-12-17T11:06:57.735Z,-88
2022-12-17T11:09:51.976Z,-89
2022-12-17T11:12:39.696Z,-86
2022-12-17T11:15:38.886Z,-88
2022-12-17T11:18:25.749Z,-88
2022-12-17T11:21:16.012Z,-88
2022-12-17T11:24:04.585Z,-88
2022-12-17T11:26:54.212Z,-89
2022-12-17T11:29:39.896Z,-89
2022-12-17T11:32:55.711Z,-89
2022-12-17T11:35:47.117Z,-89
2022-12-17T11:38:41.913Z,-89
2022-12-17T11:41:35.134Z,-89
2022-12-17T11:44:27.792Z,-88
2022-12-17T11:47:24.287Z,-88
2022-12-17T11:50:16.786Z,-88
2022-12-17T11:53:10.647Z,-87
2022-12-17T11:56:00.542Z,-88
2022-12-17T11:58:50.551Z,-87
2022-12-17T12:01:41.390Z,-88
2022-12-17T12:04:36.589Z,-88
2022-12-17T12:07:28.031Z,-88
2022-12-17T12:10:16.082Z,-89
2022-12-17T12:13:11.403Z,-88
2022-12-17T12:16:11.971Z,-88
2022-12-17T12:19:04.735Z,-88
2022-12-17T12:21:59.091Z,-89
2022-12-17T12:25:05.525Z,-80
2022-12-17T12:27:57.482Z,-81
2022-12-17T12:30:45.182Z,-81
2022-12-17T12:33:40.540Z,-82
2022-12-17T12:36:29.347Z,-81
2022-12-17T12:39:16.077Z,-80
2022-12-17T12:42:07.239Z,-81
2022-12-17T12:45:07.354Z,-89
2022-12-17T12:48:02.641Z,-88
2022-12-17T12:50:51.940Z,-89
2022-12-17T12:53:38.819Z,-89
2022-12-17T12:56:25.031Z,-90
2022-12-17T12:59:15.634Z,-89
2022-12-17T13:02:01.190Z,-89
2022-12-17T13:04:50.878Z,-89
2022-12-17T13:07:24.727Z,-89
2022-12-17T13:09:55.463Z,-89
2022-12-17T13:12:34.083Z,-89
2022-12-17T13:15:18.361Z,-89
2022-12-17T13:17:56.219Z,-89
2022-12-17T13:20:31.854Z,-88
2022-12-17T13:23:16.460Z,-89
2022-12-17T13:25:45.263Z,-88
2022-12-17T13:28:30.752Z,-88
2022-12-17T13:31:05.112Z,-87
2022-12-17T13:33:40.061Z,-88
2022-12-17T13:36:19.322Z,-87
2022-12-17T13:38:53.881Z,-87
2022-12-17T13:41:31.766Z,-88
2022-12-17T13:44:02.771Z,-87
2022-12-17T13:46:46.687Z,-85
2022-12-17T13:49:19.257Z,-87
2022-12-17T13:51:48.087Z,-87
2022-12-17T13:54:20.882Z,-88
2022-12-17T13:56:48.899Z,-88
2022-12-17T13:59:21.031Z,-87
2022-12-17T14:01:52.573Z,-88
2022-12-17T14:04:23.237Z,-88
2022-12-17T14:06:52.445Z,-88
2022-12-17T14:09:22.237Z,-87
2022-12-17T14:12:13.326Z,-87
2022-12-17T14:14:44.223Z,-88
2022-12-17T14:17:20.300Z,-87
2022-12-17T14:19:49.103Z,-87
2022-12-17T14:22:20.657Z,-87
2022-12-17T14:24:49.028Z,-86
2022-12-17T14:27:25.907Z,-87
2022-12-17T14:29:54.242Z,-88
2022-12-17T14:32:31.705Z,-87
2022-12-17T14:35:01.198Z,-87
2022-12-17T14:37:30.194Z,-87
2022-12-17T14:40:02.380Z,-87
2022-12-17T14:42:30.721Z,-88
2022-12-17T14:45:02.292Z,-88
2022-12-17T14:47:33.016Z,-88
2022-12-17T14:50:05.193Z,-88
2022-12-17T14:52:42.421Z,-88
2022-12-17T14:55:38.059Z,-88
2022-12-17T14:58:18.326Z,-89
2022-12-17T15:00:48.810Z,-88
2022-12-17T15:03:25.166Z,-88
2022-12-17T15:05:56.658Z,-87
2022-12-17T15:08:24.850Z,-88
2022-12-17T15:10:53.309Z,-88
2022-12-17T15:13:21.391Z,-87
2022-12-17T15:15:49.558Z,-87
2022-12-17T15:18:27.208Z,-87
2022-12-17T15:20:55.346Z,-88
2022-12-17T15:23:24.737Z,-88
2022-12-17T15:26:00.696Z,-87
2022-12-17T15:28:29.008Z,-87
2022-12-17T15:30:57.194Z,-88
2022-12-17T15:33:26.756Z,-88
2022-12-17T15:35:54.821Z,-88
2022-12-17T15:38:22.963Z,-88
2022-12-17T15:40:53.846Z,-88
2022-12-17T15:43:20.988Z,-88
2022-12-17T15:45:50.932Z,-88
2022-12-17T15:48:20.242Z,-87
2022-12-17T15:50:50.081Z,-87
2022-12-17T15:53:18.503Z,-88
2022-12-17T15:55:46.678Z,-88
2022-12-17T15:58:14.982Z,-89
2022-12-17T16:00:43.026Z,-85
2022-12-17T16:03:11.597Z,-88
2022-12-17T16:05:39.778Z,-88
2022-12-17T16:08:09.386Z,-86
2022-12-17T16:10:38.340Z,-85
2022-12-17T16:13:07.108Z,-86
2022-12-17T16:15:35.354Z,-86
2022-12-17T16:18:03.474Z,-85
2022-12-17T16:20:31.619Z,-86
2022-12-17T16:23:01.129Z,-86
2022-12-17T16:25:30.747Z,-85
2022-12-17T16:27:58.885Z,-86
2022-12-17T16:30:29.112Z,-86
2022-12-17T16:32:59.519Z,-85
2022-12-17T16:35:28.550Z,-86
2022-12-17T16:37:56.695Z,-85
2022-12-17T16:40:24.814Z,-86
2022-12-17T16:42:54.355Z,-85
2022-12-17T16:45:22.479Z,-85
2022-12-17T16:47:51.141Z,-85
2022-12-17T16:50:19.302Z,-86
2022-12-17T16:52:47.586Z,-86
2022-12-17T16:55:15.799Z,-86
2022-12-17T16:57:43.956Z,-86
2022-12-17T17:00:14.700Z,-86
2022-12-17T17:02:43.011Z,-86
2022-12-17T17:05:12.468Z,-86
2022-12-17T17:07:40.634Z,-85
2022-12-17T17:10:09.565Z,-86
2022-12-17T17:12:37.739Z,-84
2022-12-17T17:15:06.752Z,-86
2022-12-17T17:17:55.514Z,-86
2022-12-17T17:20:24.745Z,-86
2022-12-17T17:22:58.796Z,-86
2022-12-17T17:25:43.855Z,-86
2022-12-17T17:28:15.136Z,-86
2022-12-17T17:30:43.237Z,-86
2022-12-17T17:33:12.800Z,-86
2022-12-17T17:35:40.913Z,-87
2022-12-17T17:38:21.971Z,-86
2022-12-17T17:40:59.541Z,-86
2022-12-17T17:43:27.952Z,-87
2022-12-17T17:45:59.649Z,-86
2022-12-17T17:48:29.238Z,-86
2022-12-17T17:51:00.968Z,-87
2022-12-17T17:53:29.258Z,-88
2022-12-17T17:55:59.507Z,-87
2022-12-17T17:58:27.588Z,-85
2022-12-17T18:00:57.655Z,-85
2022-12-17T18:03:26.118Z,-85
2022-12-17T18:05:55.766Z,-85
2022-12-17T18:08:23.878Z,-85
2022-12-17T18:10:58.922Z,-86
2022-12-17T18:13:44.242Z,-85
2022-12-17T18:16:12.999Z,-86
2022-12-17T18:18:41.314Z,-86
2022-12-17T18:21:12.736Z,-86
2022-12-17T18:23:41.251Z,-86
2022-12-17T18:26:11.488Z,-86
2022-12-17T18:28:40.704Z,-86
2022-12-17T18:31:11.565Z,-87
2022-12-17T18:33:41.288Z,-87
2022-12-17T18:36:13.534Z,-86
2022-12-17T18:38:56.681Z,-86
2022-12-17T18:41:44.643Z,-86
2022-12-17T18:44:13.005Z,-86
2022-12-17T18:46:41.698Z,-86
2022-12-17T18:49:11.897Z,-87
2022-12-17T18:51:43.842Z,-87
2022-12-17T18:54:16.269Z,-87
2022-12-17T18:57:01.563Z,-88
2022-12-17T18:59:31.446Z,-87
2022-12-17T19:02:00.116Z,-87
2022-12-17T19:04:28.632Z,-87
2022-12-17T19:06:58.395Z,-87
2022-12-17T19:09:29.085Z,-88
2022-12-17T19:11:58.161Z,-87
2022-12-17T19:14:26.647Z,-87
2022-12-17T19:16:57.849Z,-86
2022-12-17T19:19:27.788Z,-87
2022-12-17T19:21:59.744Z,-87
2022-12-17T19:24:27.988Z,-87
2022-12-17T19:26:56.758Z,-87
2022-12-17T19:29:24.889Z,-87
2022-12-17T19:31:53.148Z,-86
2022-12-17T19:34:21.451Z,-87
2022-12-17T19:37:02.218Z,-88
2022-12-17T19:39:30.800Z,-87
2022-12-17T19:41:58.973Z,-87
2022-12-17T19:44:27.271Z,-86
2022-12-17T19:46:58.366Z,-85
2022-12-17T19:49:26.663Z,-86
2022-12-17T19:52:03.146Z,-86
2022-12-17T19:54:31.356Z,-86
2022-12-17T19:56:59.473Z,-86
2022-12-17T19:59:28.373Z,-87
2022-12-17T20:01:56.557Z,-85
2022-12-17T20:04:24.727Z,-87
2022-12-17T20:06:53.155Z,-85
2022-12-17T20:09:23.007Z,-89
2022-12-17T20:11:51.527Z,-89
2022-12-17T20:14:22.258Z,-85
2022-12-17T20:16:51.925Z,-84
2022-12-17T20:19:21.974Z,-86
2022-12-17T20:21:50.130Z,-87
2022-12-17T20:24:21.856Z,-86
2022-12-17T20:26:54.917Z,-88
2022-12-17T20:29:26.654Z,-89
2022-12-17T20:31:55.182Z,-88
2022-12-17T20:34:23.617Z,-86
2022-12-17T20:36:52.395Z,-86
2022-12-17T20:39:30.208Z,-87
2022-12-17T20:41:59.877Z,-88
2022-12-17T20:44:28.958Z,-89
2022-12-17T20:46:57.447Z,-89
2022-12-17T20:49:26.808Z,-90
2022-12-17T20:51:55.154Z,-89
2022-12-17T20:54:23.619Z,-90
2022-12-17T20:57:03.111Z,-88
2022-12-17T20:59:32.944Z,-89
2022-12-17T21:02:01.258Z,-89
2022-12-17T21:04:29.417Z,-90
2022-12-17T21:06:59.994Z,-89
2022-12-17T21:09:28.155Z,-89
2022-12-17T21:11:56.326Z,-90
2022-12-17T21:14:24.467Z,-90
2022-12-17T21:16:54.009Z,-90
2022-12-17T21:19:22.173Z,-90
2022-12-17T21:21:50.637Z,-90
2022-12-17T21:24:18.680Z,-90
2022-12-17T21:26:47.839Z,-90
2022-12-17T21:29:23.117Z,-90
2022-12-17T21:31:53.539Z,-90
2022-12-17T21:34:23.004Z,-89
2022-12-17T21:36:51.926Z,-86
2022-12-17T21:39:20.999Z,-86
2022-12-17T21:42:12.941Z,-86
2022-12-17T21:44:42.570Z,-86
2022-12-17T21:47:12.825Z,-86
2022-12-17T21:49:41.796Z,-86
2022-12-17T21:52:11.390Z,-86
2022-12-17T21:54:39.815Z,-86
2022-12-17T21:57:08.816Z,-86
2022-12-17T21:59:44.746Z,-85
2022-12-17T22:02:14.664Z,-86
2022-12-17T22:04:43.379Z,-86
2022-12-17T22:07:17.812Z,-86
2022-12-17T22:10:18.610Z,-86
2022-12-17T22:12:55.977Z,-86
2022-12-17T22:15:26.361Z,-86
2022-12-17T22:17:59.657Z,-85
2022-12-17T22:20:28.642Z,-85
2022-12-17T22:22:57.374Z,-86
2022-12-17T22:25:26.048Z,-85
2022-12-17T22:27:54.835Z,-86
2022-12-17T22:30:40.774Z,-86
2022-12-17T22:33:33.640Z,-86
2022-12-17T22:37:49.084Z,-85
2022-12-17T22:41:04.640Z,-86
2022-12-17T22:44:30.406Z,-85
2022-12-17T22:44:53.205Z,-85
2022-12-17T22:47:23.555Z,-85
